In Rescue
 
Open Full Screen Window  High Contrast Mode
Wind Gusting 17 knots
13
October 25, 2021 3:44 PM EDT
Weather Information
Wind Direction
  030 °
Wind Speed
  13 kt (15 mph)
Wind Gust
  17 kt (20 mph)
Altimeter
30.05 in
Visibility
10 SM
Temperature
09° C
48° F
Dewpoint
01° C
34° F
Humidity
58%
1hr Rain Fall
00.00 in.
24hr Rain Fall
00.00 in.
Sky Condition
Overcast @ 3,100 ft
VFR

METAR KMCD 251944Z AUTO 03013G17KT 10SM OVC031 09/01 A3005 RMK AO2 T00900014

FAA Disclaimer: The data displayed is for advisory purposes only and is not to be used for flight planning or operations.